首页
METAR-TAF:

METAR-TAF

机场 :

里尔, 法国

纬度: 50-34N, 经度: 003-06E, 海拔: 48米

当前天气观测

该预报发布于19分钟前的08:30 UTC
风速2节,风向多变
温度 31°C
湿度 38%
气压 1019 hPa
能见度10公里或以上
1500米以下无云,无积雨云

METAR: LFQQ 080830Z AUTO VRB02KT CAVOK 31/15 Q1019 NOSIG

时间: 10:49 (08:49 UTC)

预报

该预报发布于3小时和49分钟前的05:00 UTC
预报有效从08日的 06点(UTC)到 09日的 12点(UTC)
风速3节,风向东南
能见度10公里或以上
1500米以下无云,无积雨云
几率 30% :
短暂存在
从 08日的 16点(UTC)到 08日的 20点(UTC)
风速15节,风向多变,有时为25节阵风
多云层高于10000英尺, 积雨云.
阵雨
几率 30% :
短暂存在
从 09日的 03点(UTC)到 09日的 09点(UTC)
风速13节,风向东转东北
多云层高于10000英尺, 积雨云.
阵雨

TAF: LFQQ 080500Z 0806/0912 14003KT CAVOK PROB30 TEMPO 0816/0820 VRB15G25KT SHRA BKN100CB PROB30 TEMPO 0903/0909 07013KT SHRA BKN100CB

超过4000个机场的气象观测和天气预报(METAR&TAF报告)。

可查询的气象台以黄色和红色小点在地图上表示。

将鼠标移到小点上方,可查看气象台名称。

然后点击查看天气观测和预报。

如需切换地图:点击带黑十字的绿色按钮放大地图;点击带横线的绿色按钮缩小地图;或者点击绿色箭头查看邻近地区的地图。


METAR-TAF: